Racecast

James Dietler-Bennion

Bella Vista (CA) · 12 · CVCCA D2SJS D2 · Compare head to head

Athlete rating 119.0 2011 TF season
Best race 128.1 XC
Races 65
Seasons 5 2007 — 2011

RankedNation #12811·CA #1930·CA D2 #899·SJS #196·SJS D2 #47·CVC #21·Team #10 ?

Speed rating — all races

Cross Country

XC speed rating

2010 XC 124.8

Bella Vista (CA) · Grade 12

Date Meet Event Result Place Rating Difficulty PR/SR Flags
2010-11-27 Woodward Park 5000m 16:28 87th · 1st on team 126.7 +0.013 ★PR ★CR SR CSR
2010-11-13 Willow Hills Reservoir Course 5000m 17:08 30th · 3rd on team 126.0 +0.045
2010-11-06 Calaveras County Fairgrounds 4828m 16:38 8th · 1st on team 127.8 +0.065 ★CR CSR
2010-10-29 Willow Hills Reservoir Course 5000m 16:52 5th · 1st on team 127.5 +0.045 ★CR SR CSR
2010-10-16 Willow Hills Reservoir Course 5000m 17:20.3 18th · 1st on team 124.8 +0.045 CR SR CSR
2010-10-12 Granite Park 4828m 15:53 5th · 1st on team 128.1 +0.012 ★PR ★CR ★R SR CSR RSR
2010-10-09 Woodward Park 5000m 17:21 91st · 7th on team 120.9 +0.013 CR SR CSR
2010-09-18 Nevada Union High School 4828m 17:15 9th · 1st on team 123.1 +0.076 ★CR CSR
2010-09-15 Granite Park 4828m 16:42 5th · 1st on team 120.5 +0.012 PR CR SR CSR
2010-09-11 Granite Park 4828m 16:45 28th · 3rd on team 121.6 +0.012 CR CSR
2010-09-04 Lagoon Valley Park 4828m 16:44.2 9th · 1st on team 125.1 +0.056 PR ★CR SR CSR
2010-08-27 Woodland High School 3218m 10:16 1st · 1st on team 125.4 +0.024 ★PR ★CR SR CSR RSR

2009 XC 121.5

Bella Vista (CA) · Grade 11

Date Meet Event Result Place Rating Difficulty PR/SR Flags
2009-11-14 Willow Hills Reservoir Course 5000m 17:46 41st · 1st on team 122.6 +0.045 CSR
2009-11-07 Calaveras County Fairgrounds 4828m 17:18 36th · 1st on team 123.0 +0.065 CR CSR
2009-10-17 Willow Hills Reservoir Course 5000m 19:10.5 67th · 2nd on team 114.2 +0.045 CSR
2009-09-12 Legion-Tuolumne Regional Park 5000m 16:49 4th · 1st on team 125.6 +0.015 PR ★CR R SR CSR RSR
2009-09-05 Lagoon Valley Park 4828m 17:15.6 15th · 1st on team 122.1 +0.056 PR CR SR CSR RSR

2008 XC 122.9

Bella Vista (CA) · Grade 10

Date Meet Event Result Place Rating Difficulty PR/SR Flags
2008-10-18 Willow Hills Reservoir Course 5000m 17:40.7 32nd · 1st on team 122.9 +0.045 PR CR R SR CSR RSR

2007 XC 115.3

Bella Vista (CA) · Grade 9

Date Meet Event Result Place Rating Difficulty PR/SR Flags
2007-11-03 Calaveras County Fairgrounds 3218m 11:37 1st · 1st on team 120.1 +0.084 PR ★CR R SR CSR RSR
2007-10-13 Willow Hills Reservoir Course 3200m 12:36 7th · 1st on team 110.5 +0.088 ★PR ★CR R SR CSR RSR

Track & Field

TF speed rating

2011 TF 117.1

Bella Vista (CA) · Grade 12

Date Meet Event Result Place Rating Difficulty PR/SR Flags
2011-05-12 Capital Valley Conference Finals 3200m 10:33.69 13th · 6th on team 115.3 -0.036
2011-04-28 CVC Center Meet 3 3200m 11:08.58 12th · 3rd on team 111.1 -0.020
2011-04-28 CVC Center Meet 3 800m 2:08.81 5th · 1st on team 118.2 -0.020
2011-04-22 West Valley/Chico Invitational 1600m 4:42.38 30th · 4th on team 119.3 -0.033 SR
2011-04-22 West Valley/Chico Invitational 800m 2:05.75 17th · 2nd on team 119.1 -0.033
2011-04-08 Bronco Roundup Distance Carnival 800m 2:04.51 8th · 3rd on team 120.2 -0.036 ★PR SR RSR
2011-04-06 CVC Center Meet 2 1600m 4:54.27 15th · 7th on team 116.0 -0.025
2011-04-06 CVC Center Meet 2 3200m 10:40.65 14th · 5th on team 115.9 -0.025
2011-04-06 CVC Center Meet 2 800m 2:07.21 6th · 2nd on team 119.0 -0.025 SR RSR
2011-04-02 Bella Vista Bronco Invitational 1600m 4:51.85 39th · 8th on team 115.6 -0.036
2011-04-02 Bella Vista Bronco Invitational 800m 2:08.57 13th · 2nd on team 116.5 -0.036 SR
2011-03-16 CVC Center Meet 1 1600m 4:45.8 7th · 2nd on team 118.2 -0.036 SR RSR
2011-03-16 CVC Center Meet 1 3200m 10:17.54 6th · 2nd on team 118.2 -0.036 SR RSR
2011-03-12 King Gilbert Invitational 1600m 4:52.27 17th · 1st on team 116.2 -0.027 SR RSR

2010 TF 120.9

Bella Vista (CA) · Grade 11

Date Meet Event Result Place Rating Difficulty PR/SR Flags
2010-05-29 CIF Sac-Joaquin Section Masters Trials and Finals 2010 3200m 9:49.25 19th · 1st on team 123.7 -0.037
2010-05-28 CIF Sac-Joaquin Section Masters Trials and Finals 3200m 9:49.25 19th · 1st on team 122.8 -0.037
2010-05-21 Sac Joaquin Section Division II Finals 3200m 9:55.48 8th · 1st on team 122.2 -0.036
2010-05-13 Capital Athletic League Finals 3200m 9:47.79 4th · 1st on team 123.8 -0.036 ★PR SR RSR
2010-05-01 Sacramento Meet of Champions 3200m 9:57.63 11th · 1st on team 122.1 -0.037
2010-04-23 Bronco Roundup Distance Carnival 3200m 9:53.47 5th · 1st on team 123.1 -0.036 PR SR RSR
2010-04-21 Race results → 800m 2:06.51 7th · 1st on team 119.0
2010-04-21 Race results → 1600m 4:35.99 4th · 1st on team 122.8
2010-04-17 Depth Charge 800m 2:05.5 2nd · 1st on team 120.7 -0.021 PR SR
2010-04-17 Depth Charge 1600m 4:40.61 3rd · 1st on team 121.6 -0.021
2010-04-10 Bella Vista Invitational 800m 2:06.74 13th · 1st on team 118.2 -0.036 PR SR
2010-04-10 Bella Vista Invitational 1600m 4:34.06 12th · 1st on team 122.9 -0.036 ★PR SR RSR
2010-03-24 Capital Athletic League Center Meet 2 1600m 4:35.53 6th · 2nd on team 121.9 -0.036 PR SR RSR
2010-03-24 Capital Athletic League Center Meet 2 3200m 10:56.51 10th · 3rd on team 111.3 -0.036
2010-02-27 Clarke-Massey Relays 3200m 10:26.14 9th · 1st on team 117.1 -0.031 SR RSR

2009 TF 115.5

Bella Vista (CA) · Grade 10

Date Meet Event Result Place Rating Difficulty PR/SR Flags
2009-05-14 Capital Athletic League Finals 800m 2:09.94 6th · 1st on team 114.8 -0.036 PR SR
2009-05-02 Sacramento Meet of Champions 1600m 4:49.5 18th · 1st on team 115.8 -0.037
2009-05-02 Sacramento Meet of Champions 3200m 10:08.95 11th · 1st on team 118.8 -0.037 PR SR
2009-04-22 Race results → 3200m 10:10.41 1st · 1st on team 120.6 PR SR
2009-04-18 2009 Depth Charge 1600m 4:42.88 2nd · 1st on team 120.8 -0.021 PR SR RSR
2009-04-18 2009 Depth Charge 800m 2:14.2 9th · 1st on team 113.1 -0.021 PR SR
2009-04-01 Capital Athletic League Center Meet 2 3200m 10:16.89 5th · 1st on team 118.9 -0.036 PR SR RSR
2009-03-11 CAL Center Meet 1 3200m 10:46.9 10th · 1st on team 112.4 -0.036
2009-03-04 Bella Vista - Ponderosa Dual 1600m 4:58.62 3rd · 1st on team 113.1 -0.036 SR
2009-03-04 Bella Vista - Ponderosa Dual 3200m 11:18.98 3rd · 1st on team 107.9 -0.036
2009-02-28 Clarke Massey Relays 3200m 10:39.2 10th · 1st on team 114.4 -0.031 SR RSR

2008 TF 114.8

Bella Vista (CA) · Grade 9

Date Meet Event Result Place Rating Difficulty PR/SR Flags
2008-05-16 Sac Joaquin Section Division II Finals 3200m 10:30.14 17th · 1st on team 117.1 -0.036 RSR
2008-05-08 Capital Athletic League Finals 3200m 10:25.78 4th · 1st on team 116.8 -0.036 PR SR RSR
2008-05-03 Race results → 1600m 4:55.29 12th · 1st on team 115.0 PR SR RSR
2008-05-03 Race results → 3200m 11:02.12 5th · 1st on team 111.5
2008-04-26 Race results → 3200m 10:51.65 20th · 1st on team 113.3 PR SR RSR